createdAt,value
2018-05-27T00:01:09.434Z,20.58
2018-05-27T00:02:19.281Z,20.67
2018-05-27T00:03:29.387Z,20.58
2018-05-27T00:04:39.504Z,20.6
2018-05-27T00:05:49.313Z,20.56
2018-05-27T00:06:58.893Z,20.48
2018-05-27T00:08:08.693Z,20.57
2018-05-27T00:09:18.772Z,20.57
2018-05-27T00:10:28.572Z,20.57
2018-05-27T00:11:38.651Z,20.42
2018-05-27T00:12:48.716Z,20.42
2018-05-27T00:13:58.353Z,20.44
2018-05-27T00:15:08.155Z,20.42
2018-05-27T00:16:18.299Z,20.35
2018-05-27T00:17:28.362Z,20.38
2018-05-27T00:18:37.903Z,20.37
2018-05-27T00:19:47.988Z,20.35
2018-05-27T00:20:58.078Z,20.4
2018-05-27T00:22:08.197Z,20.34
2018-05-27T00:23:18.261Z,20.34
2018-05-27T00:24:28.358Z,20.25
2018-05-27T00:25:38.422Z,20.29
2018-05-27T00:26:48.530Z,20.26
2018-05-27T00:27:58.406Z,20.23
2018-05-27T00:29:08.487Z,20.2
2018-05-27T00:30:18.305Z,20.26
2018-05-27T00:31:28.394Z,20.22
2018-05-27T00:32:38.490Z,20.19
2018-05-27T00:33:48.332Z,20.29
2018-05-27T00:34:58.419Z,20.19
2018-05-27T00:36:08.510Z,20.27
2018-05-27T00:37:18.581Z,20.23
2018-05-27T00:38:28.404Z,20.22
2018-05-27T00:39:38.532Z,20.22
2018-05-27T00:40:48.610Z,20.1
2018-05-27T00:41:58.686Z,20.11
2018-05-27T00:43:08.775Z,20.11
2018-05-27T00:44:18.575Z,20.12
2018-05-27T00:45:28.413Z,20.07
2018-05-27T00:46:38.487Z,20.02
2018-05-27T00:47:48.608Z,20.04
2018-05-27T00:48:58.701Z,20.12
2018-05-27T00:50:08.522Z,20.07
2018-05-27T00:51:18.663Z,20.04
2018-05-27T00:52:28.750Z,20.01
2018-05-27T00:53:38.841Z,20.05
2018-05-27T00:54:48.928Z,19.9
2018-05-27T00:55:59.016Z,20.01
2018-05-27T00:57:08.904Z,19.98
2018-05-27T00:58:18.989Z,19.78
2018-05-27T00:59:29.060Z,19.9
2018-05-27T01:00:38.893Z,19.86
2018-05-27T01:01:48.948Z,19.89
2018-05-27T01:02:59.071Z,19.86
2018-05-27T01:04:08.916Z,19.87
2018-05-27T01:05:18.731Z,19.83
2018-05-27T01:06:28.802Z,19.75
2018-05-27T01:07:38.896Z,19.8
2018-05-27T01:08:49.010Z,19.71
2018-05-27T01:09:59.080Z,19.65
2018-05-27T01:11:08.925Z,19.64
2018-05-27T01:12:19.001Z,19.61
2018-05-27T01:13:29.077Z,19.65
2018-05-27T01:14:39.224Z,19.64
2018-05-27T01:15:49.318Z,19.56
2018-05-27T01:16:59.413Z,19.64
2018-05-27T01:18:09.234Z,19.6
2018-05-27T01:19:18.532Z,19.57
2018-05-27T01:20:28.110Z,19.7
2018-05-27T01:21:38.179Z,19.65
2018-05-27T01:22:48.255Z,19.64
2018-05-27T01:23:58.081Z,19.53
2018-05-27T01:25:08.165Z,19.57
2018-05-27T01:26:18.300Z,19.6
2018-05-27T01:27:28.376Z,19.55
2018-05-27T01:28:37.923Z,19.56
2018-05-27T01:29:48.002Z,19.45
2018-05-27T01:30:58.075Z,19.49
2018-05-27T01:32:07.935Z,19.56
2018-05-27T01:33:17.742Z,19.49
2018-05-27T01:34:27.813Z,19.53
2018-05-27T01:35:37.637Z,19.5
2018-05-27T01:36:47.703Z,19.55
2018-05-27T01:37:57.773Z,19.56
2018-05-27T01:39:07.572Z,19.53
2018-05-27T01:40:17.648Z,19.46
2018-05-27T01:41:27.725Z,19.52
2018-05-27T01:42:37.805Z,19.45
2018-05-27T01:43:47.930Z,19.43
2018-05-27T01:44:57.485Z,19.52
2018-05-27T01:46:07.586Z,19.43
2018-05-27T01:47:17.657Z,19.45
2018-05-27T01:48:27.469Z,19.37
2018-05-27T01:49:37.542Z,19.45
2018-05-27T01:50:47.343Z,19.37
2018-05-27T01:51:57.410Z,19.46
2018-05-27T01:53:07.500Z,19.42
2018-05-27T01:54:17.578Z,19.43
2018-05-27T01:55:27.425Z,19.32
2018-05-27T01:56:37.511Z,19.4
2018-05-27T01:57:47.335Z,19.34
2018-05-27T01:58:57.405Z,19.45
2018-05-27T02:00:07.493Z,19.43
2018-05-27T02:01:17.305Z,19.34
2018-05-27T02:02:27.385Z,19.4
2018-05-27T02:03:37.197Z,19.37
2018-05-27T02:04:47.283Z,19.31
2018-05-27T02:05:57.372Z,19.37
2018-05-27T02:07:06.980Z,19.31
2018-05-27T02:08:17.065Z,19.31
2018-05-27T02:09:27.146Z,19.31
2018-05-27T02:10:37.238Z,19.24
2018-05-27T02:11:47.330Z,19.25
2018-05-27T02:12:57.189Z,19.3
2018-05-27T02:14:07.284Z,19.24
2018-05-27T02:15:17.082Z,19.19
2018-05-27T02:16:26.634Z,19.19
2018-05-27T02:17:36.447Z,19.12
2018-05-27T02:18:46.588Z,19.1
2018-05-27T02:19:56.406Z,19.09
2018-05-27T02:21:06.520Z,19.09
2018-05-27T02:22:16.342Z,19.16
2018-05-27T02:23:26.177Z,19.12
2018-05-27T02:24:36.254Z,19.12
2018-05-27T02:25:46.055Z,19.13
2018-05-27T02:26:56.845Z,19.12
2018-05-27T02:28:06.925Z,19.1
2018-05-27T02:29:16.732Z,19.13
2018-05-27T02:30:26.527Z,19.09
2018-05-27T02:31:36.654Z,19.05
2018-05-27T02:32:46.216Z,19.07
2018-05-27T02:33:55.510Z,19.12
2018-05-27T02:35:05.613Z,19.15
2018-05-27T02:36:15.427Z,19.09
2018-05-27T02:37:25.528Z,19.13
2018-05-27T02:38:35.603Z,19.1
2018-05-27T02:39:45.689Z,19.05
2018-05-27T02:40:55.759Z,19.02
2018-05-27T02:42:05.859Z,19.05
2018-05-27T02:43:15.686Z,19.06
2018-05-27T02:44:25.562Z,19.07
2018-05-27T02:45:35.651Z,19.05
2018-05-27T02:46:45.194Z,19.1
2018-05-27T02:47:55.024Z,19.07
2018-05-27T02:49:04.826Z,18.99
2018-05-27T02:50:14.965Z,19.07
2018-05-27T02:51:25.051Z,18.99
2018-05-27T02:52:35.144Z,18.97
2018-05-27T02:53:45.215Z,19.05
2018-05-27T02:54:55.312Z,18.94
2018-05-27T02:56:05.226Z,18.97
2018-05-27T02:57:15.324Z,18.89
2018-05-27T02:58:25.407Z,18.91
2018-05-27T02:59:35.539Z,18.87
2018-05-27T03:00:45.635Z,18.87
2018-05-27T03:01:55.735Z,18.86
2018-05-27T03:03:05.814Z,18.86
2018-05-27T03:35:11.210Z,17.43
2018-05-27T03:36:21.270Z,17.47
2018-05-27T03:37:31.335Z,17.52
2018-05-27T03:38:41.410Z,17.66
2018-05-27T03:39:51.471Z,17.63
2018-05-27T03:41:01.557Z,17.77
2018-05-27T03:42:11.370Z,17.98
2018-05-27T03:43:20.906Z,18.01
2018-05-27T03:44:30.972Z,18.16
2018-05-27T03:45:40.789Z,18.14
2018-05-27T03:46:50.911Z,18.31
2018-05-27T03:48:00.988Z,18.39
2018-05-27T03:49:10.785Z,18.6
2018-05-27T03:50:20.882Z,18.71
2018-05-27T03:51:30.970Z,18.89
2018-05-27T03:52:41.094Z,18.91
2018-05-27T03:53:51.189Z,19.09
2018-05-27T03:55:01.510Z,19.17
2018-05-27T03:56:11.067Z,19.27
2018-05-27T03:57:21.150Z,19.32
2018-05-27T03:58:31.229Z,19.42
2018-05-27T03:59:41.309Z,19.53
2018-05-27T04:00:51.395Z,19.64
2018-05-27T04:02:01.467Z,19.71
2018-05-27T04:03:11.558Z,19.78
2018-05-27T04:04:21.701Z,19.85
2018-05-27T04:05:31.502Z,19.95
2018-05-27T04:06:41.323Z,20.02
2018-05-27T04:07:51.143Z,20.07
2018-05-27T04:09:01.258Z,20.12
2018-05-27T04:10:11.365Z,20.22
2018-05-27T04:11:21.178Z,20.29
2018-05-27T04:12:31.269Z,20.25
2018-05-27T04:13:41.350Z,20.46
2018-05-27T04:14:51.168Z,20.48
2018-05-27T04:16:01.250Z,20.49
2018-05-27T04:17:11.320Z,20.61
2018-05-27T04:18:21.407Z,21.25
2018-05-27T04:19:31.486Z,22.82
2018-05-27T04:20:41.295Z,24.27
2018-05-27T04:21:51.378Z,25.48
2018-05-27T04:23:01.174Z,26.32
2018-05-27T04:24:11.261Z,27.09
2018-05-27T04:25:20.545Z,27.75
2018-05-27T04:26:30.376Z,28.48
2018-05-27T04:27:40.472Z,29.02
2018-05-27T04:28:50.544Z,29.42
2018-05-27T04:30:00.646Z,29.95
2018-05-27T04:31:10.737Z,30.45
2018-05-27T04:32:20.800Z,30.81
2018-05-27T04:33:30.891Z,31.25
2018-05-27T04:34:40.712Z,31.45
2018-05-27T04:35:50.797Z,31.77
2018-05-27T04:37:00.874Z,32.08
2018-05-27T04:38:10.953Z,32.3
2018-05-27T04:39:20.800Z,32.52
2018-05-27T04:40:30.353Z,32.72
2018-05-27T04:41:40.434Z,32.94
2018-05-27T04:42:50.536Z,33.23
2018-05-27T04:44:00.351Z,33.32
2018-05-27T04:45:09.899Z,33.52
2018-05-27T04:46:19.968Z,33.66
2018-05-27T04:47:29.776Z,33.78
2018-05-27T04:48:39.594Z,33.9
2018-05-27T04:49:49.674Z,33.81
2018-05-27T04:50:59.583Z,33.89
2018-05-27T04:52:09.664Z,33.97
2018-05-27T04:53:19.746Z,34.11
2018-05-27T04:54:29.575Z,34.17
2018-05-27T04:55:39.665Z,34.18
2018-05-27T04:56:49.754Z,34.36
2018-05-27T04:57:59.577Z,34.43
2018-05-27T04:59:09.877Z,34.54
2018-05-27T05:00:19.975Z,34.56
2018-05-27T05:01:30.065Z,34.61
2018-05-27T05:02:39.874Z,34.64
2018-05-27T05:03:49.466Z,34.81
2018-05-27T05:04:59.575Z,34.81
2018-05-27T05:06:09.665Z,34.97
2018-05-27T05:07:19.490Z,35.08
2018-05-27T05:08:29.590Z,35.06
2018-05-27T05:09:39.404Z,35.23
2018-05-27T05:10:49.216Z,35.23
2018-05-27T05:11:59.293Z,35.26
2018-05-27T05:13:09.376Z,35.27
2018-05-27T05:14:19.245Z,35.23
2018-05-27T05:15:29.073Z,35.4
2018-05-27T05:16:38.888Z,35.4
2018-05-27T05:17:48.494Z,35.46
2018-05-27T05:18:58.578Z,35.57
2018-05-27T05:20:08.705Z,35.5
2018-05-27T05:21:18.808Z,35.53
2018-05-27T05:22:28.640Z,35.67
2018-05-27T05:23:38.738Z,35.72
2018-05-27T05:24:48.851Z,35.65
2018-05-27T05:25:58.997Z,35.68
2018-05-27T05:27:08.819Z,35.64
2018-05-27T05:28:18.908Z,35.62
2018-05-27T05:29:28.978Z,35.57
2018-05-27T05:30:38.819Z,35.55
2018-05-27T05:31:48.943Z,35.61
2018-05-27T05:32:59.037Z,35.49
2018-05-27T05:34:09.124Z,35.58
2018-05-27T05:35:18.686Z,35.6
2018-05-27T05:36:28.953Z,35.4
2018-05-27T05:37:39.089Z,35.38
2018-05-27T05:38:49.173Z,35.4
2018-05-27T05:39:59.262Z,35.31
2018-05-27T05:41:08.826Z,35.33
2018-05-27T05:42:18.912Z,35.23
2018-05-27T05:43:29.006Z,35.18
2018-05-27T05:44:39.131Z,35.16
2018-05-27T05:45:49.234Z,35.13
2018-05-27T05:46:58.780Z,35.08
2018-05-27T05:48:08.883Z,35.04
2018-05-27T05:49:18.822Z,34.94
2018-05-27T05:50:28.763Z,34.83
2018-05-27T05:51:38.843Z,34.84
2018-05-27T05:52:48.939Z,34.78
2018-05-27T05:53:59.022Z,34.66
2018-05-27T05:55:09.180Z,34.66
2018-05-27T05:56:19.253Z,34.49
2018-05-27T05:57:29.349Z,34.46
2018-05-27T05:58:39.439Z,34.45
2018-05-27T05:59:48.999Z,34.36
2018-05-27T06:00:59.109Z,34.24
2018-05-27T06:02:09.187Z,34.1
2018-05-27T06:03:19.268Z,34
2018-05-27T06:04:29.351Z,33.92
2018-05-27T06:05:39.417Z,33.84
2018-05-27T06:06:49.533Z,33.69
2018-05-27T06:07:59.626Z,33.66
2018-05-27T06:09:09.706Z,33.58
2018-05-27T06:10:19.789Z,33.48
2018-05-27T06:11:29.096Z,33.43
2018-05-27T06:12:38.647Z,33.26
2018-05-27T06:13:48.215Z,32.86
2018-05-27T06:14:57.778Z,32.06
2018-05-27T06:16:07.078Z,31.45
2018-05-27T06:17:16.379Z,30.94
2018-05-27T06:18:26.260Z,30.56
2018-05-27T06:19:36.139Z,30.39
2018-05-27T06:20:46.085Z,30.4
2018-05-27T06:21:55.643Z,30.63
2018-05-27T06:23:05.204Z,30.93
2018-05-27T06:24:15.028Z,31.25
2018-05-27T06:25:24.843Z,31.37
2018-05-27T06:26:34.663Z,31.38
2018-05-27T06:27:44.744Z,31.41
2018-05-27T06:28:54.569Z,31.38
2018-05-27T06:30:04.721Z,31.28
2018-05-27T06:31:14.840Z,31.22
2018-05-27T06:32:24.922Z,31.21
2018-05-27T06:33:34.748Z,31.26
2018-05-27T06:34:44.825Z,31.25
2018-05-27T06:35:54.384Z,31.23
2018-05-27T06:37:04.224Z,31.18
2018-05-27T06:38:14.051Z,31.1
2018-05-27T06:39:23.627Z,31.01
2018-05-27T06:40:33.718Z,30.89
2018-05-27T06:41:43.539Z,30.82
2018-05-27T06:42:53.349Z,30.71
2018-05-27T06:44:02.915Z,30.63
2018-05-27T06:45:12.744Z,30.57
2018-05-27T06:46:22.838Z,30.49
2018-05-27T06:47:32.961Z,30.47
2018-05-27T06:48:43.022Z,30.35
2018-05-27T06:49:52.843Z,30.32
2018-05-27T06:51:02.402Z,30.19
2018-05-27T06:52:12.229Z,30.11
2018-05-27T06:53:22.313Z,30.11
2018-05-27T06:54:32.388Z,30.03
2018-05-27T06:55:42.483Z,29.95
2018-05-27T06:56:52.573Z,29.89
2018-05-27T06:58:02.661Z,29.79
2018-05-27T06:59:12.751Z,29.77
2018-05-27T07:00:22.850Z,29.76
2018-05-27T07:01:32.944Z,29.72
2018-05-27T07:02:42.752Z,29.67
2018-05-27T07:03:52.840Z,29.47
2018-05-27T07:05:02.840Z,29.42
2018-05-27T07:06:12.965Z,29.28
2018-05-27T07:07:23.055Z,29.2
2018-05-27T07:08:33.149Z,29.13
2018-05-27T07:09:43.246Z,29.2
2018-05-27T07:10:53.355Z,29.2
2018-05-27T07:12:03.157Z,29.23
2018-05-27T07:13:13.229Z,29.28
2018-05-27T07:14:23.320Z,29.29
2018-05-27T07:15:33.144Z,29.28
2018-05-27T07:16:42.751Z,29.29
2018-05-27T07:17:52.842Z,29.35
2018-05-27T07:19:02.932Z,29.35
2018-05-27T07:20:12.746Z,29.32
2018-05-27T07:21:22.826Z,29.3
2018-05-27T07:22:32.661Z,29.23
2018-05-27T07:23:42.745Z,29.06
2018-05-27T07:24:52.827Z,29.23
2018-05-27T07:26:02.906Z,29.24
2018-05-27T07:27:12.740Z,29.28
2018-05-27T07:28:22.561Z,29.29
2018-05-27T07:29:32.639Z,29.33
2018-05-27T07:30:42.203Z,29.43
2018-05-27T07:31:52.287Z,29.3
2018-05-27T07:33:02.121Z,29.51
2018-05-27T07:34:12.191Z,29.47
2018-05-27T07:35:22.010Z,29.45
2018-05-27T07:36:31.824Z,29.55
2018-05-27T07:37:41.942Z,29.42
2018-05-27T07:38:51.771Z,29.47
2018-05-27T07:40:01.860Z,29.45
2018-05-27T07:41:11.945Z,29.48
2018-05-27T07:42:22.046Z,29.47
2018-05-27T07:43:32.151Z,29.57
2018-05-27T07:44:42.270Z,29.54
2018-05-27T07:45:52.379Z,29.6
2018-05-27T07:47:02.483Z,29.6
2018-05-27T07:48:12.600Z,29.69
2018-05-27T07:49:22.473Z,29.72
2018-05-27T07:50:32.572Z,29.76
2018-05-27T07:51:42.658Z,29.81
2018-05-27T07:52:52.745Z,29.73
2018-05-27T07:54:02.841Z,29.77
2018-05-27T07:55:12.917Z,29.95
2018-05-27T07:56:22.797Z,29.88
2018-05-27T07:57:32.623Z,29.91
2018-05-27T07:58:42.467Z,29.92
2018-05-27T07:59:52.580Z,29.91
2018-05-27T08:01:02.406Z,30
2018-05-27T08:02:12.496Z,30.11
2018-05-27T08:03:22.061Z,30.14
2018-05-27T08:04:31.636Z,30.1
2018-05-27T08:05:41.710Z,30.16
2018-05-27T08:06:51.544Z,30.22
2018-05-27T08:08:01.625Z,30.29
2018-05-27T08:09:11.716Z,30.45
2018-05-27T08:10:21.802Z,30.48
2018-05-27T08:11:31.879Z,30.57
2018-05-27T08:12:41.998Z,30.62
2018-05-27T08:13:52.078Z,30.63
2018-05-27T08:15:01.897Z,30.49
2018-05-27T08:16:11.738Z,30.48
2018-05-27T08:17:21.835Z,30.35
2018-05-27T08:18:31.906Z,30.4
2018-05-27T08:19:42.088Z,30.32
2018-05-27T08:20:51.989Z,30.44
2018-05-27T08:22:02.125Z,30.45
2018-05-27T08:23:11.954Z,30.39
2018-05-27T08:24:22.043Z,30.49
2018-05-27T08:25:32.187Z,30.52
2018-05-27T08:26:42.059Z,30.49
2018-05-27T08:27:52.149Z,30.48
2018-05-27T08:29:02.262Z,30.42
2018-05-27T08:30:12.089Z,30.44
2018-05-27T08:31:22.271Z,30.56
2018-05-27T08:32:32.360Z,30.63
2018-05-27T08:33:42.199Z,30.73
2018-05-27T08:34:52.035Z,30.66
2018-05-27T08:36:02.133Z,30.73
2018-05-27T08:37:12.235Z,30.82
2018-05-27T08:38:22.061Z,30.84
2018-05-27T08:39:32.183Z,30.91
2018-05-27T08:40:42.298Z,30.89
2018-05-27T08:41:52.384Z,30.91
2018-05-27T08:43:02.479Z,30.96
2018-05-27T08:44:12.570Z,30.96
2018-05-27T08:45:22.669Z,31
2018-05-27T08:46:32.513Z,31.07
2018-05-27T08:47:42.628Z,31.18
2018-05-27T08:48:52.770Z,31.19
2018-05-27T08:50:03.008Z,31.33
2018-05-27T08:51:13.107Z,31.4
2018-05-27T08:52:22.931Z,31.38
2018-05-27T08:53:33.161Z,31.52
2018-05-27T08:54:42.988Z,31.41
2018-05-27T08:55:53.129Z,31.43
2018-05-27T08:57:03.216Z,31.45
2018-05-27T08:58:13.079Z,31.5
2018-05-27T08:59:22.967Z,31.62
2018-05-27T09:00:33.151Z,31.65
2018-05-27T09:01:42.994Z,31.6
2018-05-27T09:02:53.100Z,31.58
2018-05-27T09:04:03.207Z,31.63
2018-05-27T09:05:13.031Z,31.55
2018-05-27T09:06:23.010Z,31.56
2018-05-27T09:07:33.182Z,31.5
2018-05-27T09:08:43.003Z,31.41
2018-05-27T09:09:53.110Z,31.5
2018-05-27T09:11:02.954Z,31.41
2018-05-27T09:12:12.776Z,31.41
2018-05-27T09:13:22.886Z,31.41
2018-05-27T09:14:32.964Z,31.44
2018-05-27T09:15:43.129Z,31.44
2018-05-27T09:16:53.221Z,31.5
2018-05-27T09:18:03.106Z,31.59
2018-05-27T09:19:12.928Z,31.68
2018-05-27T09:20:22.786Z,31.71
2018-05-27T09:21:32.880Z,31.78
2018-05-27T09:22:42.441Z,31.8
2018-05-27T09:23:52.544Z,31.9
2018-05-27T09:25:02.848Z,31.86
2018-05-27T09:26:13.123Z,31.88
2018-05-27T09:27:23.203Z,31.87
2018-05-27T09:28:33.314Z,31.78
2018-05-27T09:29:42.878Z,31.77
2018-05-27T09:30:53.103Z,31.81
2018-05-27T09:32:03.105Z,31.77
2018-05-27T09:33:13.207Z,31.81
2018-05-27T09:34:23.326Z,31.88
2018-05-27T09:35:33.410Z,31.91
2018-05-27T09:36:43.533Z,31.95
2018-05-27T09:37:53.639Z,31.86
2018-05-27T09:39:03.509Z,31.94
2018-05-27T09:40:13.632Z,32.08
2018-05-27T09:41:23.803Z,32.17
2018-05-27T09:42:33.893Z,32.32
2018-05-27T09:43:43.971Z,32.47
2018-05-27T09:44:53.804Z,32.57
2018-05-27T09:46:03.937Z,32.69
2018-05-27T09:47:14.092Z,32.75
2018-05-27T09:48:24.193Z,32.69
2018-05-27T09:49:34.272Z,32.71
2018-05-27T09:50:43.825Z,32.69
2018-05-27T09:51:53.939Z,32.79
2018-05-27T09:53:04.027Z,32.74
2018-05-27T09:54:14.157Z,32.74
2018-05-27T09:55:23.997Z,32.72
2018-05-27T09:56:33.836Z,32.71
2018-05-27T09:57:43.931Z,32.87
2018-05-27T09:58:53.885Z,32.9
2018-05-27T10:00:04.163Z,32.98
2018-05-27T10:01:14.269Z,32.98
2018-05-27T10:02:24.121Z,33.01
2018-05-27T10:03:34.234Z,33.06
2018-05-27T10:04:44.351Z,33.05
2018-05-27T10:05:54.431Z,33.09
2018-05-27T10:07:04.537Z,33.08
2018-05-27T10:08:14.403Z,33.02
2018-05-27T10:09:24.492Z,33.01
2018-05-27T10:10:34.573Z,33.23
2018-05-27T10:11:44.790Z,33.17
2018-05-27T10:12:54.914Z,33.31
2018-05-27T10:14:05.027Z,33.37
2018-05-27T10:15:15.122Z,33.37
2018-05-27T10:16:25.030Z,33.23
2018-05-27T10:17:35.129Z,33.21
2018-05-27T10:18:45.248Z,33.23
2018-05-27T10:19:55.343Z,33.09
2018-05-27T10:21:05.451Z,33.08
2018-05-27T10:22:15.334Z,32.84
2018-05-27T10:23:25.179Z,32.96
2018-05-27T10:24:35.280Z,33.05
2018-05-27T10:25:45.399Z,33.08
2018-05-27T10:26:55.747Z,33.05
2018-05-27T10:28:05.873Z,32.96
2018-05-27T10:29:15.976Z,32.86
2018-05-27T10:30:26.073Z,32.83
2018-05-27T10:31:36.167Z,32.84
2018-05-27T10:32:46.340Z,32.93
2018-05-27T10:33:56.660Z,32.43
2018-05-27T10:35:06.736Z,32.13
2018-05-27T10:36:16.828Z,31.86
2018-05-27T10:37:26.936Z,32.09
2018-05-27T10:38:37.042Z,32.31
2018-05-27T10:39:47.160Z,32.5
2018-05-27T10:40:57.289Z,32.62
2018-05-27T10:42:07.396Z,32.75
2018-05-27T10:43:17.491Z,32.89
2018-05-27T10:44:27.652Z,32.86
2018-05-27T10:45:37.873Z,33.02
2018-05-27T10:46:47.976Z,33.17
2018-05-27T10:47:58.103Z,32.87
2018-05-27T10:49:08.206Z,32.71
2018-05-27T10:50:18.314Z,32.38
2018-05-27T10:51:28.452Z,32.2
2018-05-27T10:52:38.532Z,32.38
2018-05-27T10:53:48.628Z,32.72
2018-05-27T10:54:58.728Z,32.84
2018-05-27T10:56:08.588Z,32.93
2018-05-27T10:57:18.749Z,32.96
2018-05-27T10:58:28.860Z,32.99
2018-05-27T10:59:38.416Z,33.02
2018-05-27T11:00:48.270Z,32.94
2018-05-27T11:01:58.121Z,32.71
2018-05-27T11:03:07.971Z,32.27
2018-05-27T11:04:18.061Z,32.15
2018-05-27T11:05:28.166Z,32.35
2018-05-27T11:06:38.271Z,32.5
2018-05-27T11:07:48.379Z,32.61
2018-05-27T11:08:58.481Z,32.79
2018-05-27T11:10:08.331Z,32.87
2018-05-27T11:11:18.181Z,32.93
2018-05-27T11:12:28.010Z,33.09
2018-05-27T11:13:38.088Z,33.05
2018-05-27T11:14:48.205Z,33.16
2018-05-27T11:15:58.314Z,33.16
2018-05-27T11:17:08.430Z,33.2
2018-05-27T11:18:18.504Z,33.12
2018-05-27T11:19:28.602Z,33.18
2018-05-27T11:20:38.739Z,33.21
2018-05-27T11:21:48.933Z,33.16
2018-05-27T11:22:59.025Z,33.18
2018-05-27T11:24:09.183Z,33.36
2018-05-27T11:25:19.296Z,33.44
2018-05-27T11:26:29.577Z,33.46
2018-05-27T11:27:39.700Z,33.44
2018-05-27T11:28:49.838Z,32.79
2018-05-27T11:30:00.125Z,32.71
2018-05-27T11:31:10.218Z,32.87
2018-05-27T11:32:20.094Z,32.86
2018-05-27T11:33:30.194Z,33.02
2018-05-27T11:34:40.014Z,33.06
2018-05-27T11:35:50.133Z,33.12
2018-05-27T11:37:00.156Z,33.21
2018-05-27T11:38:10.378Z,33.29
2018-05-27T11:39:20.492Z,33.26
2018-05-27T11:40:30.649Z,33.39
2018-05-27T11:41:40.762Z,33.06
2018-05-27T11:42:50.864Z,32.56
2018-05-27T11:44:01.013Z,32.86
2018-05-27T11:45:10.847Z,33.01
2018-05-27T11:46:20.947Z,33.13
2018-05-27T11:47:31.043Z,33.37
2018-05-27T11:48:41.364Z,33.5
2018-05-27T11:49:51.203Z,33.61
2018-05-27T11:51:01.303Z,33.62
2018-05-27T11:52:11.404Z,33.17
2018-05-27T11:53:21.512Z,32.87
2018-05-27T11:54:31.084Z,33.17
2018-05-27T11:55:40.959Z,33.17
2018-05-27T11:56:50.544Z,33.17
2018-05-27T11:58:00.635Z,33.44
2018-05-27T11:59:10.759Z,33.43
2018-05-27T12:00:20.875Z,33.01
2018-05-27T12:01:30.978Z,32.75
2018-05-27T12:02:40.841Z,32.91
2018-05-27T12:03:50.662Z,33.17
2018-05-27T12:05:00.491Z,33.21
2018-05-27T12:06:10.577Z,33.23
2018-05-27T12:07:20.753Z,33.37
2018-05-27T12:08:30.599Z,33.41
2018-05-27T12:09:41.375Z,33.4
2018-05-27T12:10:51.795Z,33.46
2018-05-27T12:12:01.916Z,33.41
2018-05-27T12:13:11.735Z,33.55
2018-05-27T12:14:21.852Z,33.56
2018-05-27T12:15:31.963Z,33.5
2018-05-27T12:16:41.808Z,33.61
2018-05-27T12:17:51.923Z,33.63
2018-05-27T12:19:02.047Z,33.59
2018-05-27T12:20:12.156Z,33.61
2018-05-27T12:21:22.269Z,33.69
2018-05-27T12:22:32.374Z,33.73
2018-05-27T12:23:42.475Z,33.69
2018-05-27T12:24:52.612Z,33.71
2018-05-27T12:26:02.699Z,33.84
2018-05-27T12:27:12.527Z,33.89
2018-05-27T12:28:22.606Z,33.9
2018-05-27T12:29:32.714Z,34
2018-05-27T12:30:42.615Z,34
2018-05-27T12:31:52.706Z,34.08
2018-05-27T12:33:02.535Z,34.06
2018-05-27T12:34:12.637Z,34.08
2018-05-27T12:35:22.475Z,34.12
2018-05-27T12:36:32.860Z,34.19
2018-05-27T12:37:42.954Z,34.08
2018-05-27T12:38:53.078Z,33.75
2018-05-27T12:40:03.187Z,33.56
2018-05-27T12:41:13.314Z,33.21
2018-05-27T12:42:23.459Z,32.87
2018-05-27T12:43:33.555Z,32.87
2018-05-27T12:44:43.643Z,32.96
2018-05-27T12:45:53.748Z,33.05
2018-05-27T12:47:03.861Z,33.12
2018-05-27T12:48:13.714Z,33.16
2018-05-27T12:49:23.830Z,33.16
2018-05-27T12:50:33.672Z,32.98
2018-05-27T12:51:43.792Z,33.03
2018-05-27T12:52:53.874Z,33.01
2018-05-27T12:54:03.700Z,32.99
2018-05-27T12:55:13.533Z,33.02
2018-05-27T12:56:23.385Z,33.01
2018-05-27T12:57:33.497Z,32.87
2018-05-27T12:58:43.592Z,32.75
2018-05-27T12:59:53.685Z,32.61
2018-05-27T13:01:03.780Z,32.61
2018-05-27T13:02:13.619Z,32.47
2018-05-27T13:03:23.691Z,32.49
2018-05-27T13:04:33.514Z,32.38
2018-05-27T13:05:43.378Z,32.27
2018-05-27T13:06:53.477Z,32.35
2018-05-27T13:08:03.308Z,32.49
2018-05-27T13:09:13.385Z,32.47
2018-05-27T13:10:23.215Z,32.46
2018-05-27T13:11:33.347Z,32.61
2018-05-27T13:12:43.435Z,32.65
2018-05-27T13:13:53.558Z,32.72
2018-05-27T13:15:03.390Z,32.67
2018-05-27T13:16:13.524Z,32.71
2018-05-27T13:17:23.917Z,32.79
2018-05-27T13:18:34.032Z,32.81
2018-05-27T13:19:43.848Z,32.87
2018-05-27T13:20:53.996Z,32.89
2018-05-27T13:22:04.112Z,32.86
2018-05-27T13:23:14.194Z,32.74
2018-05-27T13:24:24.308Z,32.68
2018-05-27T13:25:34.414Z,32.59
2018-05-27T13:26:44.244Z,32.59
2018-05-27T13:27:54.076Z,32.54
2018-05-27T13:29:04.183Z,32.46
2018-05-27T13:30:14.311Z,32.38
2018-05-27T13:31:23.937Z,32.39
2018-05-27T13:32:33.787Z,32.37
2018-05-27T13:33:43.890Z,32.47
2018-05-27T13:34:53.819Z,32.54
2018-05-27T13:36:04.761Z,32.53
2018-05-27T13:37:15.855Z,32.46
2018-05-27T13:38:26.456Z,32.47
2018-05-27T13:39:37.049Z,32.56
2018-05-27T13:40:48.309Z,32.59
2018-05-27T13:41:59.635Z,32.47
2018-05-27T13:43:10.358Z,32.5
2018-05-27T13:44:21.080Z,32.61
2018-05-27T13:45:31.651Z,32.56
2018-05-27T13:46:42.058Z,32.61
2018-05-27T13:47:52.451Z,32.65
2018-05-27T13:49:03.343Z,32.65
2018-05-27T13:50:14.354Z,32.69
2018-05-27T13:51:25.669Z,32.8
2018-05-27T13:52:36.570Z,32.69
2018-05-27T13:53:47.659Z,32.64
2018-05-27T13:55:01.585Z,32.83
2018-05-27T13:56:15.277Z,32.81
2018-05-27T13:57:25.881Z,32.8
2018-05-27T13:58:36.116Z,32.87
2018-05-27T13:59:46.667Z,32.86
2018-05-27T14:00:57.066Z,32.93
2018-05-27T14:02:07.193Z,32.98
2018-05-27T14:03:17.372Z,32.91
2018-05-27T14:04:27.556Z,32.96
2018-05-27T14:05:37.644Z,32.96
2018-05-27T14:06:47.494Z,32.96
2018-05-27T14:07:58.063Z,32.94
2018-05-27T14:09:07.918Z,32.93
2018-05-27T14:10:18.376Z,32.91
2018-05-27T14:11:28.307Z,32.98
2018-05-27T14:12:38.420Z,32.99
2018-05-27T14:13:48.539Z,32.96
2018-05-27T14:14:58.655Z,33.02
2018-05-27T14:16:08.936Z,33.02
2018-05-27T14:17:19.214Z,33.03
2018-05-27T14:18:29.327Z,32.99
2018-05-27T14:19:39.469Z,33.05
2018-05-27T14:20:49.571Z,33.09
2018-05-27T14:21:59.764Z,33.01
2018-05-27T14:23:09.872Z,32.99
2018-05-27T14:24:20.046Z,33.17
2018-05-27T14:25:30.144Z,33.17
2018-05-27T14:26:39.714Z,33.18
2018-05-27T14:27:49.592Z,33.17
2018-05-27T14:28:59.676Z,33.2
2018-05-27T14:30:09.802Z,33.17
2018-05-27T14:31:19.949Z,33.28
2018-05-27T14:32:30.111Z,33.31
2018-05-27T14:33:40.259Z,33.26
2018-05-27T14:34:50.111Z,33.29
2018-05-27T14:36:00.252Z,33.26
2018-05-27T14:37:10.353Z,33.2
2018-05-27T14:38:20.468Z,33.21
2018-05-27T14:39:30.676Z,33.02
2018-05-27T14:40:40.782Z,33.09
2018-05-27T14:41:50.653Z,33.03
2018-05-27T14:43:00.481Z,33.03
2018-05-27T14:44:10.607Z,33.08
2018-05-27T14:45:20.709Z,33.08
2018-05-27T14:46:30.568Z,33.12
2018-05-27T14:47:41.159Z,33.18
2018-05-27T14:48:51.094Z,33.21
2018-05-27T14:50:01.189Z,33.26
2018-05-27T14:51:11.317Z,33.37
2018-05-27T14:52:21.428Z,33.32
2018-05-27T14:53:31.591Z,33.41
2018-05-27T14:54:41.697Z,33.4
2018-05-27T14:55:51.814Z,33.34
2018-05-27T14:57:01.993Z,33.32
2018-05-27T14:58:12.108Z,33.29
2018-05-27T14:59:22.239Z,33.34
2018-05-27T15:00:32.324Z,33.24
2018-05-27T15:01:42.423Z,33.21
2018-05-27T15:02:52.322Z,33.23
2018-05-27T15:04:02.531Z,33.31
2018-05-27T15:05:12.464Z,33.28
2018-05-27T15:06:22.323Z,33.23
2018-05-27T15:07:32.418Z,33.29
2018-05-27T15:08:42.347Z,33.36
2018-05-27T15:09:52.470Z,33.37
2018-05-27T15:11:02.579Z,33.36
2018-05-27T15:12:12.779Z,33.36
2018-05-27T15:13:23.153Z,33.41
2018-05-27T15:14:33.255Z,33.4
2018-05-27T15:15:43.410Z,33.36
2018-05-27T15:16:53.552Z,33.29
2018-05-27T15:18:03.644Z,33.29
2018-05-27T15:19:13.736Z,33.21
2018-05-27T15:20:23.892Z,33.18
2018-05-27T15:21:33.997Z,33.23
2018-05-27T15:22:44.106Z,33.18
2018-05-27T15:23:54.206Z,33.13
2018-05-27T15:25:04.383Z,33.05
2018-05-27T15:26:14.360Z,33.02
2018-05-27T15:27:24.458Z,33.02
2018-05-27T15:28:34.288Z,32.94
2018-05-27T15:29:44.390Z,32.98
2018-05-27T15:30:54.502Z,32.86
2018-05-27T15:32:04.814Z,32.84
2018-05-27T15:33:14.431Z,32.81
2018-05-27T15:34:24.283Z,32.75
2018-05-27T15:35:34.138Z,32.69
2018-05-27T15:36:44.258Z,32.69